createdAt,value
2019-05-02T00:05:00.269Z,96770.39
2019-05-02T00:10:05.167Z,96763.59
2019-05-02T00:15:07.250Z,96765.77
2019-05-02T00:20:10.519Z,96764.95
2019-05-02T00:25:16.075Z,96764.15
2019-05-02T00:30:18.642Z,96769.61
2019-05-02T00:35:20.217Z,96769.61
2019-05-02T00:40:26.077Z,96765.31
2019-05-02T00:45:25.944Z,96767.11
2019-05-02T00:50:29.558Z,96758.77
2019-05-02T00:55:33.895Z,96760.09
2019-05-02T01:00:39.334Z,96763.77
2019-05-02T01:05:40.917Z,96761.22
2019-05-02T01:10:42.394Z,96763.04
2019-05-02T01:15:44.370Z,96758.53
2019-05-02T01:20:47.312Z,96763.64
2019-05-02T01:25:52.898Z,96763.33
2019-05-02T01:31:02.991Z,96758.14
2019-05-02T01:36:08.201Z,96761.31
2019-05-02T01:41:10.068Z,96752.97
2019-05-02T01:46:11.754Z,96750.84
2019-05-02T01:51:13.333Z,96751.83
2019-05-02T01:56:14.849Z,96746.68
2019-05-02T02:01:21.403Z,96745.86
2019-05-02T02:06:20.047Z,96750.50
2019-05-02T02:11:21.670Z,96749.70
2019-05-02T02:16:23.182Z,96747.86
2019-05-02T02:21:25.561Z,96748.73
2019-05-02T02:26:28.375Z,96747.72
2019-05-02T02:31:29.901Z,96745.06
2019-05-02T02:36:34.508Z,96747.08
2019-05-02T02:41:35.260Z,96747.90
2019-05-02T02:46:40.084Z,96749.41
2019-05-02T02:51:42.018Z,96747.42
2019-05-02T02:56:43.600Z,96749.57
2019-05-02T03:01:45.077Z,96749.06
2019-05-02T03:06:47.224Z,96747.60
2019-05-02T03:12:09.066Z,96750.92
2019-05-02T03:17:11.086Z,96755.89
2019-05-02T03:22:12.726Z,96762.40
2019-05-02T03:27:15.412Z,96769.05
2019-05-02T03:32:32.041Z,96760.56
2019-05-02T03:37:21.136Z,96775.82
2019-05-02T03:42:22.968Z,96776.16
2019-05-02T03:47:24.736Z,96775.34
2019-05-02T03:52:26.416Z,96772.50
2019-05-02T03:57:33.434Z,96777.31
2019-05-02T04:02:32.797Z,96773.34
2019-05-02T04:07:39.939Z,96774.67
2019-05-02T04:12:40.124Z,96764.89
2019-05-02T04:17:42.089Z,96764.06
2019-05-02T04:22:49.079Z,96767.56
2019-05-02T04:27:48.909Z,96766.09
2019-05-02T04:32:55.718Z,96771.75
2019-05-02T04:37:53.993Z,96767.42
2019-05-02T04:43:02.082Z,96772.38
2019-05-02T04:48:03.838Z,96778.19
2019-05-02T04:53:02.324Z,96781.88
2019-05-02T04:58:03.799Z,96785.25
2019-05-02T05:03:07.319Z,96784.78
2019-05-02T05:08:08.675Z,96778.50
2019-05-02T05:13:12.148Z,96783.55
2019-05-02T05:18:14.616Z,96775.90
2019-05-02T05:23:21.365Z,96774.80
2019-05-02T05:28:21.717Z,96764.64
2019-05-02T05:33:23.292Z,96769.34
2019-05-02T05:38:28.544Z,96754.69
2019-05-02T05:43:28.275Z,96759.15
2019-05-02T05:48:32.051Z,96753.45
2019-05-02T05:53:33.279Z,96762.55
2019-05-02T05:58:39.959Z,96762.85
2019-05-02T06:03:42.005Z,96767.59
2019-05-02T06:08:41.651Z,96754.17
2019-05-02T06:13:48.940Z,96751.86
2019-05-02T06:18:47.062Z,96749.22
2019-05-02T06:23:48.587Z,96744.19
2019-05-02T06:28:50.063Z,96734.23
2019-05-02T06:33:51.598Z,96736.61
2019-05-02T06:38:56.692Z,96738.77
2019-05-02T06:43:56.497Z,96741.50
2019-05-02T06:48:58.342Z,96731.87
2019-05-02T06:53:59.962Z,96734.41
2019-05-02T06:59:03.384Z,96737.02
2019-05-02T07:04:05.117Z,96729.56
2019-05-02T07:09:06.847Z,96731.37
2019-05-02T07:14:13.682Z,96725.52
2019-05-02T07:19:12.842Z,96727.88
2019-05-02T07:24:14.868Z,96734.06
2019-05-02T07:29:16.984Z,96724.48
2019-05-02T07:34:19.896Z,96721.28
2019-05-02T07:39:21.578Z,96717.12
2019-05-02T07:44:27.093Z,96715.02
2019-05-02T07:49:32.462Z,96714.14
2019-05-02T07:54:30.033Z,96713.27
2019-05-02T07:59:31.607Z,96716.73
2019-05-02T08:04:33.222Z,96705.39
2019-05-02T08:09:39.085Z,96715.63
2019-05-02T08:14:39.990Z,96708.63
2019-05-02T08:19:43.032Z,96712.19
2019-05-02T08:24:45.014Z,96706.82
2019-05-02T08:29:46.698Z,96710.64
2019-05-02T08:34:51.972Z,96707.95
2019-05-02T08:39:51.630Z,96717.35
2019-05-02T08:44:56.376Z,96711.13
2019-05-02T08:49:56.821Z,96702.84
2019-05-02T08:54:58.477Z,96695.42
2019-05-02T09:00:01.379Z,96713.39
2019-05-02T09:05:06.056Z,96706.31
2019-05-02T09:10:08.710Z,96705.58
2019-05-02T09:15:11.906Z,96692.60
2019-05-02T09:20:18.723Z,96683.91
2019-05-02T09:25:18.924Z,96678.73
2019-05-02T09:30:22.751Z,96676.64
2019-05-02T09:35:25.151Z,96668.58
2019-05-02T09:40:26.628Z,96675.12
2019-05-02T09:45:33.343Z,96663.63
2019-05-02T09:50:34.832Z,96655.19
2019-05-02T09:55:43.804Z,96657.55
2019-05-02T10:01:01.833Z,96657.30
2019-05-02T10:06:03.937Z,96652.45
2019-05-02T10:11:06.017Z,96643.03
2019-05-02T10:16:07.696Z,96635.13
2019-05-02T10:21:13.456Z,96645.67
2019-05-02T10:26:19.820Z,96626.02
2019-05-02T10:31:16.554Z,96624.72
2019-05-02T10:36:19.672Z,96625.80
2019-05-02T10:41:22.410Z,96621.89
2019-05-02T10:46:33.430Z,96616.22
2019-05-02T10:51:34.053Z,96602.02
2019-05-02T10:56:35.812Z,96616.74
2019-05-02T11:01:56.319Z,96614.48
2019-05-02T11:06:58.527Z,96611.54
2019-05-02T11:12:02.544Z,96605.03
2019-05-02T11:17:13.832Z,96599.11
2019-05-02T11:22:15.687Z,96604.97
2019-05-02T11:27:17.273Z,96608.75
2019-05-02T11:32:18.949Z,96597.80
2019-05-02T11:37:22.515Z,96598.59
2019-05-02T11:42:27.231Z,96602.30
2019-05-02T11:47:27.523Z,96603.23
2019-05-02T11:52:33.038Z,96596.69
2019-05-02T11:57:33.184Z,96606.98
2019-05-02T12:02:35.188Z,96605.82
2019-05-02T12:07:37.058Z,96594.17
2019-05-02T12:12:39.157Z,96594.77
2019-05-02T12:17:41.950Z,96589.02
2019-05-02T12:22:43.975Z,96592.41
2019-05-02T12:27:46.580Z,96589.56
2019-05-02T12:32:48.069Z,96580.83
2019-05-02T12:37:53.675Z,96578.72
2019-05-02T12:42:53.382Z,96564.79
2019-05-02T12:47:54.864Z,96569.73
2019-05-02T12:52:57.440Z,96573.70
2019-05-02T12:57:59.064Z,96551.98
2019-05-02T13:03:11.644Z,96565.10
2019-05-02T13:08:13.374Z,96553.40
2019-05-02T13:13:17.432Z,96556.41
2019-05-02T13:18:23.335Z,96551.47
2019-05-02T13:23:27.397Z,96545.38
2019-05-02T13:28:26.807Z,96533.28
2019-05-02T13:33:31.803Z,96540.08
2019-05-02T13:38:35.283Z,96529.48
2019-05-02T13:43:38.871Z,96528.98
2019-05-02T13:48:42.740Z,96532.66
2019-05-02T13:53:47.104Z,96528.75
2019-05-02T13:58:49.037Z,96523.52
2019-05-02T14:03:53.674Z,96524.03
2019-05-02T14:08:56.282Z,96518.13
2019-05-02T14:13:57.963Z,96524.81
2019-05-02T14:18:59.447Z,96530.40
2019-05-02T14:24:01.697Z,96522.27
2019-05-02T14:29:07.136Z,96510.42
2019-05-02T14:34:21.924Z,96507.86
2019-05-02T14:39:23.407Z,96511.23
2019-05-02T14:44:28.741Z,96500.48
2019-05-02T14:49:28.482Z,96499.20
2019-05-02T14:54:32.272Z,96504.89
2019-05-02T14:59:33.899Z,96497.79
2019-05-02T15:04:38.283Z,96497.73
2019-05-02T15:09:39.125Z,96502.67
2019-05-02T15:14:40.636Z,96498.77
2019-05-02T15:19:42.739Z,96493.22
2019-05-02T15:24:44.419Z,96496.69
2019-05-02T15:29:45.905Z,96482.48
2019-05-02T15:34:56.306Z,96484.77
2019-05-02T15:45:05.905Z,96482.94
2019-05-02T15:50:08.062Z,96484.02
2019-05-02T15:55:11.577Z,96480.20
2019-05-02T16:00:23.124Z,96482.03
2019-05-02T16:05:23.858Z,96483.48
2019-05-02T16:10:25.514Z,96475.30
2019-05-02T16:15:27.094Z,96476.44
2019-05-02T16:20:32.278Z,96473.12
2019-05-02T16:25:34.177Z,96473.14
2019-05-02T16:30:36.983Z,96470.36
2019-05-02T16:35:39.768Z,96476.38
2019-05-02T16:40:41.897Z,96479.08
2019-05-02T16:45:44.055Z,96473.50
2019-05-02T16:50:45.732Z,96477.88
2019-05-02T16:55:47.214Z,96469.12
2019-05-02T17:00:48.888Z,96475.20
2019-05-02T17:05:54.136Z,96479.23
2019-05-02T17:10:57.012Z,96486.78
2019-05-02T17:15:58.673Z,96487.58
2019-05-02T17:21:01.700Z,96490.42
2019-05-02T17:26:03.983Z,96482.03
2019-05-02T17:31:10.113Z,96486.02
2019-05-02T17:36:09.431Z,96488.88
2019-05-02T17:41:11.883Z,96493.17
2019-05-02T17:46:18.651Z,96493.56
2019-05-02T17:51:22.733Z,96495.86
2019-05-02T17:56:25.066Z,96487.46
2019-05-02T18:01:33.324Z,96494.98
2019-05-02T18:06:35.523Z,96497.34
2019-05-02T18:11:37.766Z,96509.06
2019-05-02T18:16:39.486Z,96518.77
2019-05-02T18:21:41.903Z,96523.50
2019-05-02T18:26:43.497Z,96527.89
2019-05-02T18:31:47.249Z,96525.68
2019-05-02T18:36:48.454Z,96530.78
2019-05-02T18:41:51.932Z,96536.94
2019-05-02T18:46:53.585Z,96544.71
2019-05-02T18:51:57.396Z,96540.12
2019-05-02T18:56:58.630Z,96544.06
2019-05-02T19:02:02.154Z,96550.06
2019-05-02T19:07:07.562Z,96546.99
2019-05-02T19:12:13.869Z,96549.99
2019-05-02T19:17:12.491Z,96546.80
2019-05-02T19:22:17.024Z,96540.77
2019-05-02T19:27:21.076Z,96546.61
2019-05-02T19:32:27.267Z,96544.20
2019-05-02T19:37:26.683Z,96551.03
2019-05-02T19:42:28.257Z,96551.48
2019-05-02T19:47:31.697Z,96565.06
2019-05-02T19:52:38.921Z,96568.70
2019-05-02T19:57:37.347Z,96558.20
2019-05-02T20:02:42.267Z,96550.62
2019-05-02T20:07:42.862Z,96550.20
2019-05-02T20:12:48.212Z,96557.88
2019-05-02T20:17:48.047Z,96545.92
2019-05-02T20:22:49.937Z,96549.67
2019-05-02T20:27:52.587Z,96556.55
2019-05-02T20:32:54.288Z,96561.08
2019-05-02T20:37:55.767Z,96559.46
2019-05-02T20:42:57.335Z,96563.92
2019-05-02T20:47:59.426Z,96557.34
2019-05-02T20:53:01.963Z,96555.67
2019-05-02T20:58:03.895Z,96557.67
2019-05-02T21:03:05.467Z,96565.67
2019-05-02T21:08:22.556Z,96582.69
2019-05-02T21:13:24.882Z,96571.73
2019-05-02T21:18:26.755Z,96577.95
2019-05-02T21:23:40.654Z,96575.59
2019-05-02T21:28:32.253Z,96578.55
2019-05-02T21:33:38.612Z,96577.13
2019-05-02T21:38:42.559Z,96583.30
2019-05-02T21:43:44.080Z,96579.97
2019-05-02T21:48:45.559Z,96582.19
2019-05-02T21:53:58.558Z,96587.21
2019-05-02T21:59:07.267Z,96579.42
2019-05-02T22:04:09.122Z,96572.69
2019-05-02T22:09:12.260Z,96567.84
2019-05-02T22:14:14.919Z,96569.38
2019-05-02T22:19:16.492Z,96573.38
2019-05-02T22:24:17.980Z,96562.89
2019-05-02T22:29:21.699Z,96561.25
2019-05-02T22:34:23.322Z,96583.77
2019-05-02T22:39:42.054Z,96590.61
2019-05-02T22:44:43.910Z,96585.30
2019-05-02T22:49:45.392Z,96578.20
2019-05-02T22:54:46.915Z,96572.58
2019-05-02T22:59:48.401Z,96581.55
2019-05-02T23:04:52.409Z,96581.94
2019-05-02T23:09:53.711Z,96584.97
2019-05-02T23:14:55.288Z,96581.49
2019-05-02T23:19:56.862Z,96584.65
2019-05-02T23:25:17.167Z,96583.17
2019-05-02T23:30:22.554Z,96585.66
2019-05-02T23:35:24.230Z,96578.84
2019-05-02T23:40:25.750Z,96574.84
2019-05-02T23:45:27.337Z,96565.03
2019-05-02T23:50:28.811Z,96569.02
2019-05-02T23:55:32.096Z,96569.88
